createdAt,value
2019-04-26T00:00:34.848Z,99.90
2019-04-26T00:03:03.298Z,99.90
2019-04-26T00:05:35.346Z,99.90
2019-04-26T00:07:59.664Z,99.90
2019-04-26T00:10:45.644Z,99.90
2019-04-26T00:13:29.403Z,99.90
2019-04-26T00:16:15.019Z,99.90
2019-04-26T00:18:42.432Z,99.90
2019-04-26T00:21:09.801Z,99.90
2019-04-26T00:23:38.417Z,99.90
2019-04-26T00:26:06.347Z,99.90
2019-04-26T00:28:33.850Z,99.90
2019-04-26T00:31:01.300Z,99.90
2019-04-26T00:33:28.662Z,99.90
2019-04-26T00:35:56.204Z,99.90
2019-04-26T00:38:23.699Z,99.90
2019-04-26T00:40:51.083Z,99.90
2019-04-26T00:43:18.625Z,99.90
2019-04-26T00:45:46.133Z,99.90
2019-04-26T00:48:14.138Z,99.90
2019-04-26T00:50:42.480Z,99.90
2019-04-26T00:53:09.800Z,99.90
2019-04-26T00:55:37.170Z,99.90
2019-04-26T00:58:04.586Z,99.90
2019-04-26T01:00:31.949Z,99.90
2019-04-26T01:02:59.257Z,99.90
2019-04-26T01:05:28.427Z,99.90
2019-04-26T01:07:57.708Z,99.90
2019-04-26T01:10:25.831Z,99.90
2019-04-26T01:12:53.304Z,99.90
2019-04-26T01:15:22.026Z,99.90
2019-04-26T01:17:49.859Z,99.90
2019-04-26T01:20:17.861Z,99.90
2019-04-26T01:22:48.679Z,99.90
2019-04-26T01:25:47.017Z,99.90
2019-04-26T01:28:18.498Z,99.90
2019-04-26T01:30:47.034Z,99.90
2019-04-26T01:33:14.448Z,99.90
2019-04-26T01:35:41.814Z,99.90
2019-04-26T01:38:10.450Z,99.90
2019-04-26T01:40:37.779Z,99.90
2019-04-26T01:43:17.971Z,99.90
2019-04-26T01:46:02.159Z,99.90
2019-04-26T01:48:47.480Z,99.90
2019-04-26T01:51:22.779Z,99.90
2019-04-26T01:53:50.652Z,99.90
2019-04-26T01:56:18.129Z,99.90
2019-04-26T01:58:45.436Z,99.90
2019-04-26T02:01:38.104Z,99.90
2019-04-26T02:04:05.433Z,99.90
2019-04-26T02:06:35.118Z,99.90
2019-04-26T02:09:03.880Z,99.90
2019-04-26T02:11:31.257Z,99.90
2019-04-26T02:13:58.600Z,99.90
2019-04-26T02:16:26.983Z,99.90
2019-04-26T02:18:54.422Z,99.90
2019-04-26T02:21:26.333Z,99.90
2019-04-26T02:24:04.315Z,99.90
2019-04-26T02:26:32.975Z,99.90
2019-04-26T02:29:01.531Z,99.90
2019-04-26T02:31:30.499Z,99.90
2019-04-26T02:33:58.114Z,99.90
2019-04-26T02:36:44.945Z,99.90
2019-04-26T02:38:54.728Z,99.90
2019-04-26T02:41:22.138Z,99.90
2019-04-26T02:43:50.191Z,99.90
2019-04-26T02:46:28.417Z,99.90
2019-04-26T02:49:20.294Z,99.90
2019-04-26T02:51:56.409Z,99.90
2019-04-26T02:54:46.770Z,99.90
2019-04-26T02:57:25.161Z,99.90
2019-04-26T02:59:58.159Z,99.90
2019-04-26T03:02:25.576Z,99.90
2019-04-26T03:04:58.277Z,99.90
2019-04-26T03:07:35.881Z,99.90
2019-04-26T03:10:03.256Z,99.90
2019-04-26T03:12:34.556Z,99.90
2019-04-26T03:15:22.280Z,99.90
2019-04-26T03:17:59.206Z,99.90
2019-04-26T03:20:34.950Z,99.90
2019-04-26T03:23:56.208Z,99.90
2019-04-26T03:26:20.067Z,99.90
2019-04-26T03:29:03.098Z,99.90
2019-04-26T03:31:52.340Z,99.90
2019-04-26T03:34:19.165Z,99.90
2019-04-26T03:37:42.633Z,99.90
2019-04-26T03:40:22.800Z,99.90
2019-04-26T03:43:16.293Z,99.90
2019-04-26T03:45:50.879Z,99.90
2019-04-26T03:48:35.212Z,99.90
2019-04-26T03:51:05.074Z,99.90
2019-04-26T03:53:48.014Z,99.90
2019-04-26T03:56:53.763Z,99.90
2019-04-26T03:59:49.339Z,99.90
2019-04-26T04:02:48.830Z,99.90
2019-04-26T04:05:30.968Z,99.90
2019-04-26T04:07:58.327Z,99.90
2019-04-26T04:10:30.043Z,99.90
2019-04-26T04:13:15.616Z,99.90
2019-04-26T04:15:46.757Z,99.90
2019-04-26T04:18:20.014Z,99.90
2019-04-26T04:21:17.850Z,99.90
2019-04-26T04:23:50.751Z,99.90
2019-04-26T04:26:22.407Z,99.90
2019-04-26T04:29:39.372Z,99.90
2019-04-26T04:31:57.363Z,99.90
2019-04-26T04:34:34.363Z,99.90
2019-04-26T04:37:02.398Z,99.90
2019-04-26T04:39:42.894Z,99.90
2019-04-26T04:42:48.095Z,99.90
2019-04-26T04:46:00.493Z,99.90
2019-04-26T04:49:22.861Z,99.90
2019-04-26T04:52:04.469Z,99.90
2019-04-26T04:54:38.733Z,99.90
2019-04-26T04:57:30.607Z,99.90
2019-04-26T05:00:33.945Z,99.90
2019-04-26T05:03:24.685Z,99.90
2019-04-26T05:06:14.496Z,99.90
2019-04-26T05:08:57.283Z,99.90
2019-04-26T05:11:53.979Z,99.90
2019-04-26T05:15:06.910Z,99.90
2019-04-26T05:17:51.499Z,99.90
2019-04-26T05:20:30.021Z,99.90
2019-04-26T05:23:21.669Z,99.90
2019-04-26T05:27:00.493Z,99.90
2019-04-26T05:30:25.914Z,99.90
2019-04-26T05:33:31.063Z,99.90
2019-04-26T05:36:10.323Z,99.90
2019-04-26T05:39:03.126Z,99.90
2019-04-26T05:42:00.675Z,99.90
2019-04-26T05:45:21.826Z,99.90
2019-04-26T05:48:11.501Z,99.90
2019-04-26T05:51:28.299Z,99.90
2019-04-26T05:55:06.156Z,99.90
2019-04-26T05:57:59.725Z,99.90
2019-04-26T06:00:50.443Z,99.90
2019-04-26T06:03:35.257Z,99.90
2019-04-26T06:06:19.752Z,99.90
2019-04-26T06:09:32.200Z,99.90
2019-04-26T06:12:08.371Z,99.90
2019-04-26T06:15:07.042Z,99.90
2019-04-26T06:18:06.671Z,99.90
2019-04-26T06:20:43.720Z,99.90
2019-04-26T06:23:40.557Z,99.90
2019-04-26T06:26:40.363Z,99.90
2019-04-26T06:29:11.338Z,99.90
2019-04-26T06:31:41.349Z,99.90
2019-04-26T06:34:11.118Z,99.90
2019-04-26T06:37:10.408Z,99.90
2019-04-26T06:39:46.656Z,99.90
2019-04-26T06:42:41.948Z,99.90
2019-04-26T06:45:36.301Z,99.90
2019-04-26T06:48:13.685Z,99.90
2019-04-26T06:50:46.487Z,99.90
2019-04-26T06:53:43.885Z,99.90
2019-04-26T06:56:39.785Z,99.90
2019-04-26T06:59:35.527Z,99.90
2019-04-26T07:01:57.727Z,99.90
2019-04-26T07:05:00.759Z,99.90
2019-04-26T07:08:03.422Z,99.90
2019-04-26T07:11:22.098Z,99.90
2019-04-26T07:14:28.475Z,99.90
2019-04-26T07:17:09.674Z,99.90
2019-04-26T07:20:12.179Z,99.90
2019-04-26T07:23:21.930Z,99.90
2019-04-26T07:26:41.888Z,99.90
2019-04-26T07:29:45.178Z,99.90
2019-04-26T07:32:20.683Z,99.90
2019-04-26T07:35:02.755Z,99.90
2019-04-26T07:38:11.086Z,99.90
2019-04-26T07:41:34.289Z,99.90
2019-04-26T07:44:33.178Z,99.90
2019-04-26T07:47:39.448Z,99.90
2019-04-26T07:50:39.881Z,99.90
2019-04-26T07:53:51.026Z,99.90
2019-04-26T07:56:30.958Z,99.90
2019-04-26T07:59:47.752Z,99.90
2019-04-26T08:02:49.319Z,99.90
2019-04-26T08:05:25.885Z,99.90
2019-04-26T08:07:54.752Z,99.90
2019-04-26T08:10:22.101Z,99.90
2019-04-26T08:12:55.170Z,99.90
2019-04-26T08:15:55.502Z,99.90
2019-04-26T08:18:30.630Z,99.90
2019-04-26T08:21:20.655Z,99.90
2019-04-26T08:24:01.388Z,99.90
2019-04-26T08:26:29.107Z,99.90
2019-04-26T08:28:56.740Z,99.90
2019-04-26T08:31:27.468Z,99.90
2019-04-26T08:33:59.152Z,99.90
2019-04-26T08:36:27.137Z,99.90
2019-04-26T08:38:55.701Z,99.90
2019-04-26T08:41:23.022Z,99.90
2019-04-26T08:44:14.448Z,99.90
2019-04-26T08:46:59.545Z,99.90
2019-04-26T08:49:40.061Z,99.90
2019-04-26T08:52:14.288Z,99.90
2019-04-26T08:54:40.276Z,99.90
2019-04-26T08:57:08.485Z,99.90
2019-04-26T08:59:37.691Z,99.90
2019-04-26T09:02:23.338Z,99.90
2019-04-26T09:05:10.276Z,99.90
2019-04-26T09:07:37.781Z,99.90
2019-04-26T09:10:11.125Z,99.90
2019-04-26T09:12:35.680Z,99.90
2019-04-26T09:15:08.920Z,99.90
2019-04-26T09:17:36.440Z,99.90
2019-04-26T09:20:07.962Z,99.90
2019-04-26T09:22:56.637Z,99.90
2019-04-26T09:25:58.577Z,99.90
2019-04-26T09:28:27.814Z,99.90
2019-04-26T09:31:05.698Z,99.90
2019-04-26T09:33:43.034Z,99.90
2019-04-26T09:36:10.421Z,99.90
2019-04-26T09:38:37.691Z,99.90
2019-04-26T09:41:05.011Z,99.90
2019-04-26T09:43:43.696Z,99.90
2019-04-26T09:46:21.203Z,99.90
2019-04-26T09:48:54.652Z,99.90
2019-04-26T09:51:22.013Z,99.90
2019-04-26T09:53:49.336Z,99.90
2019-04-26T09:56:16.859Z,99.90
2019-04-26T09:58:44.258Z,99.90
2019-04-26T10:01:11.552Z,99.90
2019-04-26T10:03:38.879Z,99.90
2019-04-26T10:06:08.214Z,99.90
2019-04-26T10:08:35.488Z,99.90
2019-04-26T10:11:05.820Z,99.90
2019-04-26T10:13:57.468Z,99.90
2019-04-26T10:16:44.286Z,99.90
2019-04-26T10:19:13.814Z,99.90
2019-04-26T10:21:41.224Z,99.90
2019-04-26T10:24:08.728Z,99.90
2019-04-26T10:26:36.182Z,99.90
2019-04-26T10:29:03.970Z,99.90
2019-04-26T10:31:31.266Z,99.90
2019-04-26T10:33:58.631Z,99.90
2019-04-26T10:36:29.672Z,99.90
2019-04-26T10:38:58.362Z,99.90
2019-04-26T10:41:24.478Z,99.90
2019-04-26T10:43:52.653Z,99.90
2019-04-26T10:46:20.107Z,99.90
2019-04-26T10:48:49.864Z,99.90
2019-04-26T10:51:20.544Z,99.90
2019-04-26T10:53:56.800Z,99.90
2019-04-26T10:56:37.749Z,99.90
2019-04-26T10:59:26.439Z,99.90
2019-04-26T11:01:53.782Z,99.90
2019-04-26T11:04:21.209Z,99.90
2019-04-26T11:06:48.586Z,99.90
2019-04-26T11:09:15.882Z,99.90
2019-04-26T11:11:43.161Z,99.90
2019-04-26T11:14:10.488Z,99.90
2019-04-26T11:16:41.229Z,99.90
2019-04-26T11:19:07.209Z,99.90
2019-04-26T11:21:34.521Z,99.90
2019-04-26T11:24:01.789Z,99.90
2019-04-26T11:26:30.985Z,99.90
2019-04-26T11:28:58.437Z,99.90
2019-04-26T11:31:27.685Z,99.90
2019-04-26T11:34:04.709Z,99.90
2019-04-26T11:36:24.317Z,99.90
2019-04-26T11:38:51.633Z,99.90
2019-04-26T11:41:18.916Z,99.90
2019-04-26T11:43:49.060Z,99.90
2019-04-26T11:46:15.535Z,99.90
2019-04-26T11:48:42.996Z,99.90
2019-04-26T11:51:10.481Z,99.90
2019-04-26T11:53:40.524Z,99.90
2019-04-26T11:56:07.121Z,99.90
2019-04-26T11:58:34.541Z,99.90
2019-04-26T12:01:03.564Z,99.90
2019-04-26T12:03:30.929Z,99.90
2019-04-26T12:06:08.986Z,99.90
2019-04-26T12:08:44.617Z,99.90
2019-04-26T12:11:18.231Z,99.90
2019-04-26T12:13:41.176Z,99.90
2019-04-26T12:16:09.847Z,99.90
2019-04-26T12:18:40.286Z,99.90
2019-04-26T12:21:07.604Z,99.90
2019-04-26T12:23:35.032Z,99.90
2019-04-26T12:26:02.319Z,99.90
2019-04-26T12:28:29.541Z,99.90
2019-04-26T12:30:58.578Z,99.90
2019-04-26T12:33:26.166Z,99.90
2019-04-26T12:35:57.054Z,99.90
2019-04-26T12:38:24.243Z,99.90
2019-04-26T12:40:52.128Z,99.90
2019-04-26T12:43:24.574Z,99.90
2019-04-26T12:46:15.826Z,99.90
2019-04-26T12:48:45.946Z,99.90
2019-04-26T12:51:13.497Z,99.90
2019-04-26T12:53:40.921Z,99.90
2019-04-26T12:56:08.241Z,99.90
2019-04-26T12:58:35.530Z,99.90
2019-04-26T13:01:03.296Z,99.90
2019-04-26T13:03:30.715Z,99.90
2019-04-26T13:06:01.208Z,99.90
2019-04-26T13:08:28.604Z,99.90
2019-04-26T13:11:14.931Z,99.90
2019-04-26T13:13:45.434Z,99.90
2019-04-26T13:16:26.297Z,99.90
2019-04-26T13:18:54.210Z,99.90
2019-04-26T13:21:21.570Z,99.90
2019-04-26T13:23:48.996Z,99.90
2019-04-26T13:26:16.352Z,99.90
2019-04-26T13:28:43.689Z,99.90
2019-04-26T13:31:11.168Z,99.90
2019-04-26T13:33:38.536Z,99.90
2019-04-26T13:36:05.987Z,99.90
2019-04-26T13:38:33.412Z,99.90
2019-04-26T13:41:04.510Z,99.90
2019-04-26T13:43:29.967Z,99.90
2019-04-26T13:46:12.680Z,99.90
2019-04-26T13:48:46.435Z,99.90
2019-04-26T13:51:14.856Z,99.90
2019-04-26T13:53:42.174Z,99.90
2019-04-26T13:56:09.610Z,99.90
2019-04-26T13:58:37.050Z,99.90
2019-04-26T14:01:05.393Z,99.90
2019-04-26T14:03:33.319Z,99.90
2019-04-26T14:06:00.706Z,99.90
2019-04-26T14:08:28.091Z,99.90
2019-04-26T14:10:55.407Z,99.90
2019-04-26T14:13:25.056Z,99.90
2019-04-26T14:15:52.286Z,99.90
2019-04-26T14:18:19.707Z,99.90
2019-04-26T14:20:47.080Z,99.90
2019-04-26T14:23:33.616Z,99.90
2019-04-26T14:26:05.251Z,99.90
2019-04-26T14:28:33.956Z,99.90
2019-04-26T14:31:01.412Z,99.90
2019-04-26T14:33:30.834Z,99.90
2019-04-26T14:35:58.043Z,99.90
2019-04-26T14:38:28.038Z,99.90
2019-04-26T14:41:03.710Z,99.90
2019-04-26T14:43:23.820Z,99.90
2019-04-26T14:45:56.193Z,99.90
2019-04-26T14:48:29.481Z,99.90
2019-04-26T14:50:49.897Z,99.80
2019-04-26T14:53:17.224Z,99.20
2019-04-26T14:55:44.580Z,99.90
2019-04-26T14:58:12.296Z,99.90
2019-04-26T15:00:41.217Z,99.90
2019-04-26T15:03:17.335Z,99.90
2019-04-26T15:06:08.416Z,99.90
2019-04-26T15:08:36.074Z,99.90
2019-04-26T15:11:04.475Z,99.90
2019-04-26T15:13:36.198Z,99.30
2019-04-26T15:16:03.917Z,97.40
2019-04-26T15:18:35.387Z,95.00
2019-04-26T15:20:59.706Z,92.30
2019-04-26T15:23:27.074Z,90.20
2019-04-26T15:25:54.443Z,91.60
2019-04-26T15:28:22.152Z,90.60
2019-04-26T15:30:49.678Z,87.10
2019-04-26T15:33:17.407Z,83.60
2019-04-26T15:35:45.592Z,81.70
2019-04-26T15:38:12.935Z,83.20
2019-04-26T15:41:11.845Z,82.80
2019-04-26T15:44:00.349Z,82.20
2019-04-26T15:46:48.530Z,81.30
2019-04-26T15:49:36.409Z,81.30
2019-04-26T15:52:02.387Z,83.60
2019-04-26T15:54:30.079Z,79.00
2019-04-26T15:56:57.444Z,79.80
2019-04-26T15:59:25.492Z,75.80
2019-04-26T16:01:52.880Z,76.70
2019-04-26T16:04:20.322Z,79.70
2019-04-26T16:06:47.655Z,81.00
2019-04-26T16:09:19.820Z,87.50
2019-04-26T16:11:49.548Z,85.70
2019-04-26T16:14:15.067Z,87.60
2019-04-26T16:16:42.437Z,89.40
2019-04-26T16:19:09.813Z,90.60
2019-04-26T16:21:37.127Z,91.20
2019-04-26T16:24:04.544Z,91.90
2019-04-26T16:26:32.933Z,91.20
2019-04-26T16:29:19.656Z,91.70
2019-04-26T16:32:05.412Z,91.80
2019-04-26T16:34:33.847Z,92.10
2019-04-26T16:37:02.948Z,93.00
2019-04-26T16:39:38.283Z,92.40
2019-04-26T16:42:06.773Z,92.60
2019-04-26T16:44:31.323Z,92.90
2019-04-26T16:47:01.948Z,93.50
2019-04-26T16:49:27.637Z,94.90
2019-04-26T16:52:02.127Z,95.50
2019-04-26T16:54:26.619Z,95.80
2019-04-26T16:56:59.007Z,95.80
2019-04-26T16:59:26.578Z,96.50
2019-04-26T17:01:53.654Z,96.50
2019-04-26T17:04:28.294Z,97.10
2019-04-26T17:06:50.278Z,97.30
2019-04-26T17:09:17.686Z,97.40
2019-04-26T17:11:44.994Z,96.90
2019-04-26T17:14:22.936Z,96.60
2019-04-26T17:16:53.495Z,96.60
2019-04-26T17:19:22.634Z,96.40
2019-04-26T17:22:00.806Z,95.90
2019-04-26T17:24:43.796Z,95.70
2019-04-26T17:27:12.842Z,95.80
2019-04-26T17:29:40.040Z,97.10
2019-04-26T17:32:09.143Z,97.50
2019-04-26T17:34:40.316Z,96.50
2019-04-26T17:37:09.939Z,96.50
2019-04-26T17:39:35.969Z,97.40
2019-04-26T17:42:03.297Z,98.30
2019-04-26T17:44:30.797Z,98.40
2019-04-26T17:47:01.947Z,99.10
2019-04-26T17:49:29.369Z,98.70
2019-04-26T17:51:59.864Z,99.10
2019-04-26T17:54:45.589Z,99.20
2019-04-26T17:56:56.587Z,99.00
2019-04-26T17:59:33.325Z,99.80
2019-04-26T18:02:00.765Z,99.60
2019-04-26T18:04:32.223Z,99.90
2019-04-26T18:06:57.801Z,99.90
2019-04-26T18:09:40.600Z,99.90
2019-04-26T18:11:51.134Z,99.90
2019-04-26T18:14:21.607Z,99.90
2019-04-26T18:16:57.148Z,99.90
2019-04-26T18:19:55.497Z,99.90
2019-04-26T18:22:35.013Z,99.90
2019-04-26T18:24:59.741Z,99.90
2019-04-26T18:27:29.895Z,99.90
2019-04-26T18:29:59.784Z,99.90
2019-04-26T18:32:25.371Z,99.90
2019-04-26T18:34:53.645Z,99.90
2019-04-26T18:37:23.000Z,99.90
2019-04-26T18:39:50.175Z,99.90
2019-04-26T18:42:17.338Z,99.90
2019-04-26T18:44:47.888Z,99.90
2019-04-26T18:47:20.388Z,99.90
2019-04-26T18:49:52.051Z,99.90
2019-04-26T18:52:19.437Z,99.90
2019-04-26T18:55:00.431Z,99.90
2019-04-26T18:57:27.783Z,99.90
2019-04-26T18:59:55.044Z,99.90
2019-04-26T19:02:24.079Z,99.90
2019-04-26T19:04:52.896Z,99.90
2019-04-26T19:07:31.449Z,99.90
2019-04-26T19:10:00.687Z,99.90
2019-04-26T19:12:23.234Z,99.90
2019-04-26T19:15:11.473Z,99.90
2019-04-26T19:18:00.274Z,99.90
2019-04-26T19:20:42.490Z,99.90
2019-04-26T19:23:09.810Z,99.90
2019-04-26T19:25:40.879Z,99.90
2019-04-26T19:28:08.148Z,99.90
2019-04-26T19:30:35.712Z,99.90
2019-04-26T19:33:04.155Z,99.90
2019-04-26T19:35:34.275Z,99.90
2019-04-26T19:38:03.141Z,99.90
2019-04-26T19:40:30.668Z,99.90
2019-04-26T19:43:03.194Z,99.90
2019-04-26T19:45:46.135Z,99.90
2019-04-26T19:48:25.902Z,99.90
2019-04-26T19:50:59.077Z,99.90
2019-04-26T19:53:42.486Z,99.90
2019-04-26T19:56:17.519Z,99.90
2019-04-26T19:58:50.822Z,99.90
2019-04-26T20:01:20.745Z,99.90
2019-04-26T20:03:47.308Z,99.90
2019-04-26T20:06:18.773Z,99.90
2019-04-26T20:08:46.334Z,99.90
2019-04-26T20:11:18.593Z,99.90
2019-04-26T20:13:46.589Z,99.90
2019-04-26T20:16:13.765Z,99.90
2019-04-26T20:18:42.108Z,99.90
2019-04-26T20:21:12.883Z,99.90
2019-04-26T20:23:45.870Z,99.90
2019-04-26T20:26:09.038Z,99.90
2019-04-26T20:28:37.531Z,99.90
2019-04-26T20:31:13.053Z,99.90
2019-04-26T20:33:42.262Z,99.90
2019-04-26T20:36:09.720Z,99.90
2019-04-26T20:38:43.787Z,99.90
2019-04-26T20:41:06.282Z,99.90
2019-04-26T20:43:36.857Z,99.90
2019-04-26T20:46:14.117Z,99.90
2019-04-26T20:48:33.174Z,99.90
2019-04-26T20:51:02.129Z,99.90
2019-04-26T20:53:30.844Z,99.90
2019-04-26T20:55:58.886Z,99.90
2019-04-26T20:58:26.144Z,99.90
2019-04-26T21:00:54.600Z,99.90
2019-04-26T21:03:26.006Z,99.90
2019-04-26T21:05:58.803Z,99.90
2019-04-26T21:08:25.803Z,99.90
2019-04-26T21:10:49.770Z,99.90
2019-04-26T21:13:17.215Z,99.90
2019-04-26T21:15:56.008Z,99.90
2019-04-26T21:18:13.796Z,99.90
2019-04-26T21:20:42.491Z,99.90
2019-04-26T21:23:09.950Z,99.90
2019-04-26T21:25:52.655Z,99.90
2019-04-26T21:28:51.973Z,99.90
2019-04-26T21:31:52.279Z,99.90
2019-04-26T21:34:33.290Z,99.90
2019-04-26T21:37:22.041Z,99.90
2019-04-26T21:40:17.014Z,99.90
2019-04-26T21:42:45.423Z,99.90
2019-04-26T21:45:12.518Z,99.90
2019-04-26T21:47:39.813Z,99.90
2019-04-26T21:50:07.197Z,99.90
2019-04-26T21:52:34.473Z,99.90
2019-04-26T21:55:01.799Z,99.90
2019-04-26T21:57:31.682Z,99.90
2019-04-26T21:59:58.442Z,99.90
2019-04-26T22:02:29.672Z,99.90
2019-04-26T22:04:54.907Z,99.90
2019-04-26T22:07:24.153Z,99.90
2019-04-26T22:10:16.541Z,99.90
2019-04-26T22:12:45.109Z,99.90
2019-04-26T22:15:37.518Z,99.90
2019-04-26T22:18:10.389Z,99.90
2019-04-26T22:20:52.213Z,99.90
2019-04-26T22:23:47.625Z,99.90
2019-04-26T22:26:13.700Z,99.90
2019-04-26T22:28:43.342Z,99.90
2019-04-26T22:31:10.595Z,99.90
2019-04-26T22:33:37.820Z,99.90
2019-04-26T22:36:05.112Z,99.90
2019-04-26T22:38:33.998Z,99.90
2019-04-26T22:41:02.951Z,99.90
2019-04-26T22:43:40.937Z,99.90
2019-04-26T22:46:29.696Z,99.90
2019-04-26T22:49:01.236Z,99.90
2019-04-26T22:51:28.575Z,99.90
2019-04-26T22:53:57.537Z,99.90
2019-04-26T22:56:23.267Z,99.90
2019-04-26T22:58:50.658Z,99.90
2019-04-26T23:01:17.957Z,99.90
2019-04-26T23:03:46.562Z,99.90
2019-04-26T23:06:15.336Z,99.90
2019-04-26T23:08:43.829Z,99.90
2019-04-26T23:11:11.255Z,99.90
2019-04-26T23:14:07.040Z,99.90
2019-04-26T23:17:07.796Z,99.90
2019-04-26T23:19:37.621Z,99.90
2019-04-26T23:22:05.582Z,99.90
2019-04-26T23:24:32.996Z,99.90
2019-04-26T23:27:00.540Z,99.90
2019-04-26T23:29:27.915Z,99.90
2019-04-26T23:31:55.550Z,99.90
2019-04-26T23:34:25.163Z,99.90
2019-04-26T23:36:53.617Z,99.90
2019-04-26T23:39:22.804Z,99.90
2019-04-26T23:41:50.566Z,99.90
2019-04-26T23:44:18.121Z,99.90
2019-04-26T23:46:45.439Z,99.90
2019-04-26T23:49:14.366Z,99.90
2019-04-26T23:51:43.148Z,99.90
2019-04-26T23:54:11.062Z,99.90
2019-04-26T23:56:38.457Z,99.90
2019-04-26T23:59:05.924Z,99.90
